Afyon, Turkey

7:37 PM EET on March 06, 2015 (GMT +0200)
Suleyman Demirel | Change Station
CLOSE
Current Station
Airport
Location: Suleyman Demirel,
Elevation: 2835 ft
Nearby Weather Stations

Elev 2835 ft 37.86 °N, 30.37 °E | Updated 17 minutes ago

Mostly Cloudy
Mostly Cloudy
50 °F
Feels Like 50 °F
N
10
Wind Variable Wind from North

Today
High -- | Low -- °F
--% Chance of Precip.
Yesterday
High -- | Low -- °F
Precip. -- in
6:23 AM 5:55 PM
Full, 99% visible
Pressure 30.15 in
Visibility 6.2 miles
Clouds Few 3500 ft
Scattered Clouds 10000 ft
Mostly Cloudy 20000 ft
Dew Point 34 °F
Humidity 54%
Rainfall 0.00 in
Snow Depth Not available.
UV 0 out of 12
Pollen Not available.
Air Quality Not available.
Flu Activity Not available.
METAR LTFC 061720Z 01009KT 9999 FEW035 SCT100 BKN200 10/01 Q1021

More Conditions Fewer Conditions

Pressure 30.15 in
Visibility 6.2 miles
Clouds Few 3500 ft
Scattered Clouds 10000 ft
Mostly Cloudy 20000 ft
Dew Point 34 °F
Humidity 54%
Rainfall 0.00 in
Snow Depth Not available.
UV 0 out of 12
Pollen Not available.
Air Quality Not available.
Flu Activity Not available.
METAR LTFC 061720Z 01009KT 9999 FEW035 SCT100 BKN200 10/01 Q1021

More Conditions Fewer Conditions

10-Day Weather Forecast

Almanac

Astronomy

Mar. 06, 2015 Rise Set
Actual Time
Civil Twilight
Nautical Twilight
Astronomical Twilight
Moon
Length of Visible Light
Length of Day
Tomorrow will be .
, % of the Moon is Illuminated

Today's Extremes

Country Highs Country Lows

Community

WunderPhotos

Upload Photos

1,803,345 photos uploaded!

WunderBlogs® & News

Nearby

Air Quality

  Air Quality AQ Index Pollutant
Not available.

Snow Depth

Station Depth Elevation

Earthquake Activity

City Distance Mag. Time & Date
Minimum magnitude displayed is 2.5.

Coastal Water Temperatures

Place Temperature

Nearby Weather Stations